sensor_id;sensor_type;location;lat;lon;timestamp;pressure;altitude;pressure_sealevel;temperature;humidity
42647;BME280;31319;53.678;-6.254;2023-02-28T00:00:13;103622.06;;;14.04;100.00
42647;BME280;31319;53.678;-6.254;2023-02-28T00:02:41;103620.72;;;14.11;100.00
42647;BME280;31319;53.678;-6.254;2023-02-28T00:05:08;103616.63;;;14.14;100.00
42647;BME280;31319;53.678;-6.254;2023-02-28T00:07:34;103618.44;;;14.46;100.00
42647;BME280;31319;53.678;-6.254;2023-02-28T00:09:59;103618.91;;;14.32;100.00
42647;BME280;31319;53.678;-6.254;2023-02-28T00:12:26;103624.44;;;14.37;100.00
42647;BME280;31319;53.678;-6.254;2023-02-28T00:14:51;103624.44;;;14.42;100.00
42647;BME280;31319;53.678;-6.254;2023-02-28T00:17:17;103628.78;;;14.23;100.00
42647;BME280;31319;53.678;-6.254;2023-02-28T00:19:49;103624.41;;;14.32;100.00
42647;BME280;31319;53.678;-6.254;2023-02-28T00:22:17;103618.34;;;14.35;100.00
42647;BME280;31319;53.678;-6.254;2023-02-28T00:24:43;103627.78;;;14.44;100.00
42647;BME280;31319;53.678;-6.254;2023-02-28T00:27:09;103621.97;;;14.41;100.00
42647;BME280;31319;53.678;-6.254;2023-02-28T00:29:35;103629.34;;;14.35;100.00
42647;BME280;31319;53.678;-6.254;2023-02-28T00:32:00;103632.22;;;14.46;100.00
42647;BME280;31319;53.678;-6.254;2023-02-28T00:34:26;103630.00;;;14.48;100.00
42647;BME280;31319;53.678;-6.254;2023-02-28T00:36:52;103622.34;;;14.55;100.00
42647;BME280;31319;53.678;-6.254;2023-02-28T00:39:17;103618.78;;;14.59;100.00
42647;BME280;31319;53.678;-6.254;2023-02-28T00:41:43;103632.66;;;14.32;100.00
42647;BME280;31319;53.678;-6.254;2023-02-28T00:44:08;103636.28;;;14.43;100.00
42647;BME280;31319;53.678;-6.254;2023-02-28T00:46:34;103628.22;;;14.26;100.00
42647;BME280;31319;53.678;-6.254;2023-02-28T00:49:00;103631.22;;;14.14;100.00
42647;BME280;31319;53.678;-6.254;2023-02-28T00:51:26;103635.66;;;14.26;100.00
42647;BME280;31319;53.678;-6.254;2023-02-28T00:53:51;103631.56;;;14.28;100.00
42647;BME280;31319;53.678;-6.254;2023-02-28T00:56:17;103629.56;;;14.86;100.00
42647;BME280;31319;53.678;-6.254;2023-02-28T00:58:43;103640.50;;;14.56;100.00
42647;BME280;31319;53.678;-6.254;2023-02-28T01:01:08;103638.19;;;14.42;100.00
42647;BME280;31319;53.678;-6.254;2023-02-28T01:03:34;103634.84;;;14.30;100.00
42647;BME280;31319;53.678;-6.254;2023-02-28T01:06:00;103634.34;;;14.38;100.00
42647;BME280;31319;53.678;-6.254;2023-02-28T01:08:26;103639.16;;;14.11;100.00
42647;BME280;31319;53.678;-6.254;2023-02-28T01:10:52;103639.88;;;13.91;100.00
42647;BME280;31319;53.678;-6.254;2023-02-28T01:13:18;103639.06;;;13.96;100.00
42647;BME280;31319;53.678;-6.254;2023-02-28T01:15:52;103640.47;;;13.98;100.00
42647;BME280;31319;53.678;-6.254;2023-02-28T01:18:18;103639.59;;;13.93;100.00
42647;BME280;31319;53.678;-6.254;2023-02-28T01:20:44;103646.22;;;13.97;100.00
42647;BME280;31319;53.678;-6.254;2023-02-28T01:23:11;103645.66;;;13.95;100.00
42647;BME280;31319;53.678;-6.254;2023-02-28T01:25:37;103640.22;;;14.05;100.00
42647;BME280;31319;53.678;-6.254;2023-02-28T01:28:04;103639.69;;;14.08;100.00
42647;BME280;31319;53.678;-6.254;2023-02-28T01:30:31;103643.63;;;14.27;100.00
42647;BME280;31319;53.678;-6.254;2023-02-28T01:32:58;103642.22;;;14.20;100.00
42647;BME280;31319;53.678;-6.254;2023-02-28T01:35:23;103638.72;;;14.34;100.00
42647;BME280;31319;53.678;-6.254;2023-02-28T01:37:49;103642.31;;;14.40;100.00
42647;BME280;31319;53.678;-6.254;2023-02-28T01:40:14;103641.53;;;14.44;100.00
42647;BME280;31319;53.678;-6.254;2023-02-28T01:42:40;103637.63;;;14.35;100.00
42647;BME280;31319;53.678;-6.254;2023-02-28T01:45:14;103642.91;;;13.95;100.00
42647;BME280;31319;53.678;-6.254;2023-02-28T01:47:45;103639.63;;;13.98;100.00
42647;BME280;31319;53.678;-6.254;2023-02-28T01:50:24;103632.78;;;14.00;100.00
42647;BME280;31319;53.678;-6.254;2023-02-28T01:52:54;103638.13;;;14.27;100.00
42647;BME280;31319;53.678;-6.254;2023-02-28T01:55:22;103641.47;;;14.29;100.00
42647;BME280;31319;53.678;-6.254;2023-02-28T01:57:56;103642.25;;;14.25;100.00
42647;BME280;31319;53.678;-6.254;2023-02-28T02:00:25;103639.81;;;14.33;100.00
42647;BME280;31319;53.678;-6.254;2023-02-28T02:02:56;103642.03;;;14.41;100.00
42647;BME280;31319;53.678;-6.254;2023-02-28T02:05:25;103639.84;;;14.38;100.00
42647;BME280;31319;53.678;-6.254;2023-02-28T02:07:54;103647.66;;;14.52;100.00
42647;BME280;31319;53.678;-6.254;2023-02-28T02:10:25;103645.47;;;14.59;100.00
42647;BME280;31319;53.678;-6.254;2023-02-28T02:24:03;103646.00;;;14.56;100.00
42647;BME280;31319;53.678;-6.254;2023-02-28T02:26:56;103651.25;;;14.62;100.00
42647;BME280;31319;53.678;-6.254;2023-02-28T02:32:43;103647.69;;;14.67;100.00
42647;BME280;31319;53.678;-6.254;2023-02-28T02:40:38;103640.00;;;14.79;100.00
42647;BME280;31319;53.678;-6.254;2023-02-28T02:45:42;103648.78;;;14.71;100.00
42647;BME280;31319;53.678;-6.254;2023-02-28T02:48:13;103644.34;;;14.55;100.00
42647;BME280;31319;53.678;-6.254;2023-02-28T02:50:44;103642.03;;;14.36;100.00
42647;BME280;31319;53.678;-6.254;2023-02-28T02:53:12;103635.88;;;14.14;100.00
42647;BME280;31319;53.678;-6.254;2023-02-28T02:55:41;103640.00;;;13.74;100.00
42647;BME280;31319;53.678;-6.254;2023-02-28T02:58:14;103640.00;;;13.74;100.00
42647;BME280;31319;53.678;-6.254;2023-02-28T03:00:47;103637.03;;;13.81;100.00
42647;BME280;31319;53.678;-6.254;2023-02-28T03:03:14;103639.47;;;14.14;100.00
42647;BME280;31319;53.678;-6.254;2023-02-28T03:05:48;103638.91;;;14.18;100.00
42647;BME280;31319;53.678;-6.254;2023-02-28T03:08:15;103639.53;;;14.30;100.00
42647;BME280;31319;53.678;-6.254;2023-02-28T03:10:42;103636.09;;;14.02;100.00
42647;BME280;31319;53.678;-6.254;2023-02-28T03:16:05;103647.66;;;14.52;100.00
42647;BME280;31319;53.678;-6.254;2023-02-28T03:21:33;103634.47;;;14.64;100.00
42647;BME280;31319;53.678;-6.254;2023-02-28T03:24:08;103630.84;;;14.53;100.00
42647;BME280;31319;53.678;-6.254;2023-02-28T03:26:39;103633.06;;;14.04;100.00
42647;BME280;31319;53.678;-6.254;2023-02-28T03:29:16;103632.38;;;14.34;100.00
42647;BME280;31319;53.678;-6.254;2023-02-28T03:32:05;103636.47;;;14.21;100.00
42647;BME280;31319;53.678;-6.254;2023-02-28T03:34:42;103638.47;;;14.41;100.00
42647;BME280;31319;53.678;-6.254;2023-02-28T03:37:16;103637.97;;;14.49;100.00
42647;BME280;31319;53.678;-6.254;2023-02-28T03:39:47;103643.78;;;14.53;100.00
42647;BME280;31319;53.678;-6.254;2023-02-28T03:42:23;103642.28;;;14.35;100.00
42647;BME280;31319;53.678;-6.254;2023-02-28T03:45:20;103640.88;;;14.22;100.00
42647;BME280;31319;53.678;-6.254;2023-02-28T03:48:02;103648.72;;;14.51;100.00
42647;BME280;31319;53.678;-6.254;2023-02-28T03:50:41;103645.97;;;14.46;100.00
42647;BME280;31319;53.678;-6.254;2023-02-28T03:53:30;103645.16;;;14.55;100.00
42647;BME280;31319;53.678;-6.254;2023-02-28T03:56:34;103649.28;;;14.53;100.00
42647;BME280;31319;53.678;-6.254;2023-02-28T04:01:44;103651.66;;;14.34;100.00
42647;BME280;31319;53.678;-6.254;2023-02-28T04:04:11;103649.63;;;14.19;100.00
42647;BME280;31319;53.678;-6.254;2023-02-28T04:06:38;103648.19;;;14.54;100.00
42647;BME280;31319;53.678;-6.254;2023-02-28T04:09:07;103659.94;;;14.39;100.00
42647;BME280;31319;53.678;-6.254;2023-02-28T04:11:39;103650.88;;;14.43;100.00
42647;BME280;31319;53.678;-6.254;2023-02-28T04:14:06;103659.66;;;14.40;100.00
42647;BME280;31319;53.678;-6.254;2023-02-28T04:16:33;103657.97;;;14.29;100.00
42647;BME280;31319;53.678;-6.254;2023-02-28T04:19:00;103661.88;;;14.43;100.00
42647;BME280;31319;53.678;-6.254;2023-02-28T04:21:31;103659.63;;;14.30;100.00
42647;BME280;31319;53.678;-6.254;2023-02-28T04:23:57;103671.16;;;14.32;100.00
42647;BME280;31319;53.678;-6.254;2023-02-28T04:26:32;103676.03;;;14.15;100.00
42647;BME280;31319;53.678;-6.254;2023-02-28T04:28:59;103678.56;;;14.22;100.00
42647;BME280;31319;53.678;-6.254;2023-02-28T04:31:25;103679.56;;;14.10;100.00
42647;BME280;31319;53.678;-6.254;2023-02-28T04:33:51;103670.41;;;13.95;100.00
42647;BME280;31319;53.678;-6.254;2023-02-28T04:36:17;103680.78;;;13.87;100.00
42647;BME280;31319;53.678;-6.254;2023-02-28T04:38:44;103679.06;;;14.19;100.00
42647;BME280;31319;53.678;-6.254;2023-02-28T04:41:10;103671.56;;;14.04;100.00
42647;BME280;31319;53.678;-6.254;2023-02-28T04:43:36;103672.84;;;13.91;100.00
42647;BME280;31319;53.678;-6.254;2023-02-28T04:46:04;103683.47;;;13.77;100.00
42647;BME280;31319;53.678;-6.254;2023-02-28T04:48:32;103681.75;;;14.08;98.79
42647;BME280;31319;53.678;-6.254;2023-02-28T04:51:05;103681.50;;;14.10;100.00
42647;BME280;31319;53.678;-6.254;2023-02-28T04:53:32;103687.09;;;14.25;96.38
42647;BME280;31319;53.678;-6.254;2023-02-28T04:55:58;103690.88;;;14.14;100.00
42647;BME280;31319;53.678;-6.254;2023-02-28T04:58:24;103691.72;;;13.82;100.00
42647;BME280;31319;53.678;-6.254;2023-02-28T05:00:53;103688.97;;;13.77;100.00
42647;BME280;31319;53.678;-6.254;2023-02-28T05:03:20;103684.25;;;13.73;100.00
42647;BME280;31319;53.678;-6.254;2023-02-28T05:05:47;103689.56;;;13.84;99.50
42647;BME280;31319;53.678;-6.254;2023-02-28T05:08:13;103691.63;;;14.04;95.12
42647;BME280;31319;53.678;-6.254;2023-02-28T05:10:39;103690.41;;;13.85;100.00
42647;BME280;31319;53.678;-6.254;2023-02-28T05:13:05;103692.00;;;13.81;100.00
42647;BME280;31319;53.678;-6.254;2023-02-28T05:15:30;103694.38;;;13.67;100.00
42647;BME280;31319;53.678;-6.254;2023-02-28T05:17:56;103698.41;;;13.59;100.00
42647;BME280;31319;53.678;-6.254;2023-02-28T05:20:22;103692.38;;;13.95;100.00
42647;BME280;31319;53.678;-6.254;2023-02-28T05:22:49;103698.34;;;13.81;100.00
42647;BME280;31319;53.678;-6.254;2023-02-28T05:25:19;103700.84;;;13.88;100.00
42647;BME280;31319;53.678;-6.254;2023-02-28T05:27:45;103709.91;;;13.83;100.00
42647;BME280;31319;53.678;-6.254;2023-02-28T05:30:11;103707.03;;;13.68;100.00
42647;BME280;31319;53.678;-6.254;2023-02-28T05:32:38;103707.28;;;14.04;100.00
42647;BME280;31319;53.678;-6.254;2023-02-28T05:35:04;103706.34;;;13.88;100.00
42647;BME280;31319;53.678;-6.254;2023-02-28T05:37:30;103704.59;;;13.45;100.00
42647;BME280;31319;53.678;-6.254;2023-02-28T05:39:56;103705.34;;;13.35;100.00
42647;BME280;31319;53.678;-6.254;2023-02-28T05:42:22;103715.34;;;13.46;100.00
42647;BME280;31319;53.678;-6.254;2023-02-28T05:44:47;103712.25;;;13.70;100.00
42647;BME280;31319;53.678;-6.254;2023-02-28T05:47:13;103718.84;;;13.69;100.00
42647;BME280;31319;53.678;-6.254;2023-02-28T05:49:41;103720.59;;;13.48;100.00
42647;BME280;31319;53.678;-6.254;2023-02-28T05:52:07;103726.34;;;13.46;100.00
42647;BME280;31319;53.678;-6.254;2023-02-28T05:54:33;103716.50;;;13.23;100.00
42647;BME280;31319;53.678;-6.254;2023-02-28T05:56:59;103725.75;;;13.17;100.00
42647;BME280;31319;53.678;-6.254;2023-02-28T05:59:25;103720.19;;;12.90;100.00
42647;BME280;31319;53.678;-6.254;2023-02-28T06:01:50;103724.22;;;12.61;100.00
42647;BME280;31319;53.678;-6.254;2023-02-28T06:04:19;103732.38;;;12.99;100.00
42647;BME280;31319;53.678;-6.254;2023-02-28T06:06:46;103733.25;;;13.00;100.00
42647;BME280;31319;53.678;-6.254;2023-02-28T06:09:12;103729.78;;;13.31;100.00
42647;BME280;31319;53.678;-6.254;2023-02-28T06:11:38;103727.53;;;13.28;100.00
42647;BME280;31319;53.678;-6.254;2023-02-28T06:14:04;103732.34;;;13.43;100.00
42647;BME280;31319;53.678;-6.254;2023-02-28T06:16:32;103735.56;;;13.35;100.00
42647;BME280;31319;53.678;-6.254;2023-02-28T06:19:00;103735.28;;;12.88;100.00
42647;BME280;31319;53.678;-6.254;2023-02-28T06:21:26;103737.63;;;13.01;100.00
42647;BME280;31319;53.678;-6.254;2023-02-28T06:23:56;103741.50;;;13.05;100.00
42647;BME280;31319;53.678;-6.254;2023-02-28T06:26:21;103750.44;;;13.17;100.00
42647;BME280;31319;53.678;-6.254;2023-02-28T06:28:47;103746.38;;;13.20;100.00
42647;BME280;31319;53.678;-6.254;2023-02-28T06:31:15;103747.34;;;13.09;100.00
42647;BME280;31319;53.678;-6.254;2023-02-28T06:33:42;103755.88;;;13.12;100.00
42647;BME280;31319;53.678;-6.254;2023-02-28T06:36:10;103749.34;;;12.53;100.00
42647;BME280;31319;53.678;-6.254;2023-02-28T06:38:36;103753.72;;;12.70;100.00
42647;BME280;31319;53.678;-6.254;2023-02-28T06:41:02;103755.53;;;12.43;100.00
42647;BME280;31319;53.678;-6.254;2023-02-28T06:43:30;103750.38;;;12.30;100.00
42647;BME280;31319;53.678;-6.254;2023-02-28T06:45:59;103755.88;;;12.30;100.00
42647;BME280;31319;53.678;-6.254;2023-02-28T06:48:26;103765.94;;;12.07;100.00
42647;BME280;31319;53.678;-6.254;2023-02-28T06:50:52;103754.22;;;12.29;100.00
42647;BME280;31319;53.678;-6.254;2023-02-28T06:53:18;103767.09;;;12.28;100.00
42647;BME280;31319;53.678;-6.254;2023-02-28T06:55:43;103764.84;;;12.42;100.00
42647;BME280;31319;53.678;-6.254;2023-02-28T06:58:09;103757.19;;;12.44;100.00
42647;BME280;31319;53.678;-6.254;2023-02-28T07:00:42;103757.03;;;12.34;100.00
42647;BME280;31319;53.678;-6.254;2023-02-28T07:03:07;103752.16;;;12.58;100.00
42647;BME280;31319;53.678;-6.254;2023-02-28T07:05:37;103758.34;;;12.48;100.00
42647;BME280;31319;53.678;-6.254;2023-02-28T07:08:04;103766.00;;;12.29;100.00
42647;BME280;31319;53.678;-6.254;2023-02-28T07:10:32;103765.69;;;12.09;100.00
42647;BME280;31319;53.678;-6.254;2023-02-28T07:12:58;103775.50;;;12.21;100.00
42647;BME280;31319;53.678;-6.254;2023-02-28T07:15:24;103773.59;;;12.05;100.00
42647;BME280;31319;53.678;-6.254;2023-02-28T07:17:50;103772.84;;;12.10;100.00
42647;BME280;31319;53.678;-6.254;2023-02-28T07:20:16;103774.16;;;12.24;100.00
42647;BME280;31319;53.678;-6.254;2023-02-28T07:22:41;103778.66;;;12.13;100.00
42647;BME280;31319;53.678;-6.254;2023-02-28T07:25:07;103780.16;;;12.04;100.00
42647;BME280;31319;53.678;-6.254;2023-02-28T07:27:33;103766.19;;;12.06;100.00
42647;BME280;31319;53.678;-6.254;2023-02-28T07:29:59;103785.38;;;12.06;100.00
42647;BME280;31319;53.678;-6.254;2023-02-28T07:32:27;103781.97;;;11.53;100.00
42647;BME280;31319;53.678;-6.254;2023-02-28T07:34:53;103786.97;;;11.56;100.00
42647;BME280;31319;53.678;-6.254;2023-02-28T07:37:18;103783.44;;;11.44;100.00
42647;BME280;31319;53.678;-6.254;2023-02-28T07:39:44;103782.66;;;11.77;100.00
42647;BME280;31319;53.678;-6.254;2023-02-28T07:42:10;103798.00;;;12.23;100.00
42647;BME280;31319;53.678;-6.254;2023-02-28T07:44:38;103795.84;;;11.92;100.00
42647;BME280;31319;53.678;-6.254;2023-02-28T07:47:09;103794.94;;;11.86;100.00
42647;BME280;31319;53.678;-6.254;2023-02-28T07:49:38;103796.34;;;11.89;100.00
42647;BME280;31319;53.678;-6.254;2023-02-28T07:52:05;103809.72;;;12.02;100.00
42647;BME280;31319;53.678;-6.254;2023-02-28T07:54:32;103809.63;;;11.97;100.00
42647;BME280;31319;53.678;-6.254;2023-02-28T07:56:57;103800.19;;;11.76;100.00
42647;BME280;31319;53.678;-6.254;2023-02-28T07:59:23;103802.41;;;11.91;100.00
42647;BME280;31319;53.678;-6.254;2023-02-28T08:01:49;103802.09;;;12.04;100.00
42647;BME280;31319;53.678;-6.254;2023-02-28T08:04:17;103803.69;;;11.72;100.00
42647;BME280;31319;53.678;-6.254;2023-02-28T08:06:43;103797.91;;;11.56;100.00
42647;BME280;31319;53.678;-6.254;2023-02-28T08:09:08;103809.88;;;12.29;100.00
42647;BME280;31319;53.678;-6.254;2023-02-28T08:11:34;103815.94;;;12.31;100.00
42647;BME280;31319;53.678;-6.254;2023-02-28T08:14:00;103821.69;;;12.30;98.72
42647;BME280;31319;53.678;-6.254;2023-02-28T08:16:25;103821.00;;;11.89;100.00
42647;BME280;31319;53.678;-6.254;2023-02-28T08:18:52;103818.75;;;11.86;100.00
42647;BME280;31319;53.678;-6.254;2023-02-28T08:21:19;103820.75;;;11.90;99.31
42647;BME280;31319;53.678;-6.254;2023-02-28T08:23:49;103829.13;;;12.01;100.00
42647;BME280;31319;53.678;-6.254;2023-02-28T08:26:18;103831.00;;;12.12;99.56
42647;BME280;31319;53.678;-6.254;2023-02-28T08:28:44;103831.84;;;11.84;95.06
42647;BME280;31319;53.678;-6.254;2023-02-28T08:31:11;103838.53;;;11.76;98.21
42647;BME280;31319;53.678;-6.254;2023-02-28T08:33:40;103835.63;;;11.94;95.10
42647;BME280;31319;53.678;-6.254;2023-02-28T08:36:07;103833.97;;;12.10;90.81
42647;BME280;31319;53.678;-6.254;2023-02-28T08:38:35;103834.88;;;11.99;92.79
42647;BME280;31319;53.678;-6.254;2023-02-28T08:41:03;103836.78;;;12.15;92.86
42647;BME280;31319;53.678;-6.254;2023-02-28T08:43:31;103840.28;;;12.44;90.50
42647;BME280;31319;53.678;-6.254;2023-02-28T08:45:57;103834.66;;;12.34;98.34
42647;BME280;31319;53.678;-6.254;2023-02-28T08:48:24;103834.28;;;11.80;100.00
42647;BME280;31319;53.678;-6.254;2023-02-28T08:51:04;103827.72;;;11.98;100.00
42647;BME280;31319;53.678;-6.254;2023-02-28T08:53:30;103833.47;;;12.30;100.00
42647;BME280;31319;53.678;-6.254;2023-02-28T08:56:10;103819.28;;;12.33;100.00
42647;BME280;31319;53.678;-6.254;2023-02-28T08:58:36;103832.63;;;12.63;99.40
42647;BME280;31319;53.678;-6.254;2023-02-28T09:01:10;103827.94;;;12.25;100.00
42647;BME280;31319;53.678;-6.254;2023-02-28T09:03:37;103824.16;;;12.31;92.96
42647;BME280;31319;53.678;-6.254;2023-02-28T09:06:03;103823.84;;;12.28;89.36
42647;BME280;31319;53.678;-6.254;2023-02-28T09:08:30;103831.97;;;12.22;87.09
42647;BME280;31319;53.678;-6.254;2023-02-28T09:10:56;103828.81;;;11.97;82.09
42647;BME280;31319;53.678;-6.254;2023-02-28T09:13:24;103836.47;;;12.45;82.72
42647;BME280;31319;53.678;-6.254;2023-02-28T09:15:52;103834.25;;;12.26;85.19
42647;BME280;31319;53.678;-6.254;2023-02-28T09:18:17;103843.69;;;12.35;91.02
42647;BME280;31319;53.678;-6.254;2023-02-28T09:20:43;103833.13;;;11.64;100.00
42647;BME280;31319;53.678;-6.254;2023-02-28T09:23:10;103838.53;;;11.76;100.00
42647;BME280;31319;53.678;-6.254;2023-02-28T09:25:37;103835.72;;;12.33;100.00
42647;BME280;31319;53.678;-6.254;2023-02-28T09:28:03;103834.28;;;11.97;100.00
42647;BME280;31319;53.678;-6.254;2023-02-28T09:30:29;103841.94;;;11.95;100.00
42647;BME280;31319;53.678;-6.254;2023-02-28T09:32:55;103847.75;;;12.15;100.00
42647;BME280;31319;53.678;-6.254;2023-02-28T09:35:22;103842.53;;;12.47;100.00
42647;BME280;31319;53.678;-6.254;2023-02-28T09:37:51;103848.88;;;11.86;100.00
42647;BME280;31319;53.678;-6.254;2023-02-28T09:40:22;103846.19;;;12.19;100.00
42647;BME280;31319;53.678;-6.254;2023-02-28T09:42:51;103849.25;;;11.78;100.00
42647;BME280;31319;53.678;-6.254;2023-02-28T09:45:31;103866.94;;;12.15;100.00
42647;BME280;31319;53.678;-6.254;2023-02-28T09:48:13;103861.16;;;12.62;100.00
42647;BME280;31319;53.678;-6.254;2023-02-28T09:50:46;103857.38;;;12.68;100.00
42647;BME280;31319;53.678;-6.254;2023-02-28T09:53:29;103852.72;;;12.69;100.00
42647;BME280;31319;53.678;-6.254;2023-02-28T09:56:11;103859.53;;;11.99;100.00
42647;BME280;31319;53.678;-6.254;2023-02-28T09:58:46;103851.41;;;12.38;100.00
42647;BME280;31319;53.678;-6.254;2023-02-28T10:01:22;103860.56;;;12.27;100.00
42647;BME280;31319;53.678;-6.254;2023-02-28T10:04:10;103863.38;;;12.15;100.00
42647;BME280;31319;53.678;-6.254;2023-02-28T10:06:46;103856.72;;;11.94;100.00
42647;BME280;31319;53.678;-6.254;2023-02-28T10:09:18;103866.47;;;12.52;100.00
42647;BME280;31319;53.678;-6.254;2023-02-28T10:11:46;103858.50;;;12.50;100.00
42647;BME280;31319;53.678;-6.254;2023-02-28T10:14:19;103861.13;;;12.45;100.00
42647;BME280;31319;53.678;-6.254;2023-02-28T10:16:59;103860.69;;;12.87;100.00
42647;BME280;31319;53.678;-6.254;2023-02-28T10:19:41;103860.50;;;11.93;100.00
42647;BME280;31319;53.678;-6.254;2023-02-28T10:22:37;103861.41;;;12.27;100.00
42647;BME280;31319;53.678;-6.254;2023-02-28T10:25:23;103870.69;;;12.60;100.00
42647;BME280;31319;53.678;-6.254;2023-02-28T10:27:50;103859.59;;;12.33;100.00
42647;BME280;31319;53.678;-6.254;2023-02-28T10:30:18;103862.66;;;12.19;100.00
42647;BME280;31319;53.678;-6.254;2023-02-28T10:32:51;103858.00;;;12.20;100.00
42647;BME280;31319;53.678;-6.254;2023-02-28T10:35:25;103854.50;;;12.41;100.00
42647;BME280;31319;53.678;-6.254;2023-02-28T10:37:57;103858.97;;;12.31;100.00
42647;BME280;31319;53.678;-6.254;2023-02-28T10:43:03;103853.00;;;12.17;100.00
42647;BME280;31319;53.678;-6.254;2023-02-28T10:45:31;103855.16;;;12.48;100.00
42647;BME280;31319;53.678;-6.254;2023-02-28T10:48:00;103854.41;;;12.36;100.00
42647;BME280;31319;53.678;-6.254;2023-02-28T10:52:54;103854.31;;;12.65;94.90
42647;BME280;31319;53.678;-6.254;2023-02-28T10:55:22;103853.06;;;12.05;97.46
42647;BME280;31319;53.678;-6.254;2023-02-28T10:57:51;103864.19;;;12.15;92.43
42647;BME280;31319;53.678;-6.254;2023-02-28T11:00:23;103866.22;;;12.70;88.39
42647;BME280;31319;53.678;-6.254;2023-02-28T11:02:51;103858.88;;;12.59;92.60
42647;BME280;31319;53.678;-6.254;2023-02-28T11:10:31;103852.81;;;12.23;91.94
42647;BME280;31319;53.678;-6.254;2023-02-28T11:13:00;103859.91;;;12.92;90.43
42647;BME280;31319;53.678;-6.254;2023-02-28T11:15:32;103857.31;;;12.63;100.00
42647;BME280;31319;53.678;-6.254;2023-02-28T11:18:14;103858.56;;;12.72;91.61
42647;BME280;31319;53.678;-6.254;2023-02-28T11:20:49;103848.84;;;12.48;95.09
42647;BME280;31319;53.678;-6.254;2023-02-28T11:23:16;103845.22;;;13.42;84.94
42647;BME280;31319;53.678;-6.254;2023-02-28T11:25:47;103845.78;;;12.44;85.21
42647;BME280;31319;53.678;-6.254;2023-02-28T11:28:34;103835.84;;;12.60;81.34
42647;BME280;31319;53.678;-6.254;2023-02-28T11:33:51;103843.81;;;12.78;82.13
42647;BME280;31319;53.678;-6.254;2023-02-28T11:36:23;103848.44;;;12.39;91.05
42647;BME280;31319;53.678;-6.254;2023-02-28T11:38:58;103848.78;;;12.26;85.34
42647;BME280;31319;53.678;-6.254;2023-02-28T11:45:02;103849.72;;;13.09;78.01
42647;BME280;31319;53.678;-6.254;2023-02-28T12:05:27;103845.16;;;13.85;62.07
42647;BME280;31319;53.678;-6.254;2023-02-28T12:16:40;103835.25;;;13.84;62.51
42647;BME280;31319;53.678;-6.254;2023-02-28T12:22:11;103830.41;;;13.43;61.02
42647;BME280;31319;53.678;-6.254;2023-02-28T12:28:12;103824.03;;;14.23;59.62
42647;BME280;31319;53.678;-6.254;2023-02-28T12:30:51;103826.84;;;13.69;60.92
42647;BME280;31319;53.678;-6.254;2023-02-28T12:33:22;103826.97;;;12.92;62.69
42647;BME280;31319;53.678;-6.254;2023-02-28T12:35:59;103827.00;;;13.14;63.80
42647;BME280;31319;53.678;-6.254;2023-02-28T12:38:29;103824.28;;;12.75;64.02
42647;BME280;31319;53.678;-6.254;2023-02-28T12:41:03;103818.06;;;13.01;63.06
42647;BME280;31319;53.678;-6.254;2023-02-28T12:43:42;103826.88;;;13.03;66.61
42647;BME280;31319;53.678;-6.254;2023-02-28T12:46:19;103823.78;;;13.39;65.08
42647;BME280;31319;53.678;-6.254;2023-02-28T12:48:52;103810.69;;;13.24;67.28
42647;BME280;31319;53.678;-6.254;2023-02-28T12:51:19;103822.22;;;13.48;64.10
42647;BME280;31319;53.678;-6.254;2023-02-28T12:56:49;103820.28;;;12.83;63.17
42647;BME280;31319;53.678;-6.254;2023-02-28T13:02:26;103813.44;;;13.07;65.78
42647;BME280;31319;53.678;-6.254;2023-02-28T13:08:41;103819.88;;;12.74;65.57
42647;BME280;31319;53.678;-6.254;2023-02-28T13:11:33;103810.78;;;13.12;64.66
42647;BME280;31319;53.678;-6.254;2023-02-28T13:14:05;103814.44;;;13.40;63.54
42647;BME280;31319;53.678;-6.254;2023-02-28T13:17:03;103798.84;;;12.80;62.53
42647;BME280;31319;53.678;-6.254;2023-02-28T13:19:41;103810.78;;;13.12;62.91
42647;BME280;31319;53.678;-6.254;2023-02-28T13:22:20;103802.91;;;13.38;61.39
42647;BME280;31319;53.678;-6.254;2023-02-28T13:24:49;103799.88;;;13.39;60.78
42647;BME280;31319;53.678;-6.254;2023-02-28T13:29:49;103801.78;;;13.17;63.47
42647;BME280;31319;53.678;-6.254;2023-02-28T13:32:35;103797.31;;;12.89;61.50
42647;BME280;31319;53.678;-6.254;2023-02-28T13:37:32;103785.31;;;13.98;58.41
42647;BME280;31319;53.678;-6.254;2023-02-28T13:40:44;103783.34;;;13.61;58.29
42647;BME280;31319;53.678;-6.254;2023-02-28T13:42:49;103774.72;;;13.52;58.96
42647;BME280;31319;53.678;-6.254;2023-02-28T13:45:28;103777.84;;;13.34;60.83
42647;BME280;31319;53.678;-6.254;2023-02-28T13:48:29;103771.44;;;13.06;59.54
42647;BME280;31319;53.678;-6.254;2023-02-28T13:50:55;103772.84;;;13.53;57.35
42647;BME280;31319;53.678;-6.254;2023-02-28T13:53:30;103771.63;;;13.71;57.73
42647;BME280;31319;53.678;-6.254;2023-02-28T13:56:27;103765.66;;;13.25;57.97
42647;BME280;31319;53.678;-6.254;2023-02-28T13:59:27;103772.56;;;13.54;58.15
42647;BME280;31319;53.678;-6.254;2023-02-28T14:05:00;103764.84;;;13.24;60.09
42647;BME280;31319;53.678;-6.254;2023-02-28T14:07:31;103767.25;;;13.21;63.14
42647;BME280;31319;53.678;-6.254;2023-02-28T14:10:05;103749.75;;;13.27;66.18
42647;BME280;31319;53.678;-6.254;2023-02-28T14:20:55;103756.44;;;13.63;65.97
42647;BME280;31319;53.678;-6.254;2023-02-28T14:35:27;103753.53;;;13.21;61.44
42647;BME280;31319;53.678;-6.254;2023-02-28T14:38:05;103753.06;;;12.63;63.49
42647;BME280;31319;53.678;-6.254;2023-02-28T14:40:35;103761.31;;;12.85;63.16
42647;BME280;31319;53.678;-6.254;2023-02-28T14:43:05;103762.81;;;12.54;63.66
42647;BME280;31319;53.678;-6.254;2023-02-28T14:45:33;103754.28;;;12.72;62.31